Home > Products > Valid Products > TAF

000
FTUS44 KSHV 170500
TAFTXK
TAF
KTXK 170525Z 1706/1806 12004KT P6SM SKC
     FM171500 14005KT P6SM SCT250
     FM171700 12005KT P6SM SCT040 BKN250
     FM180000 VRB04KT P6SM FEW045 BKN100=



000
FTUS44 KSHV 170500
TAFELD
TAF
KELD 170525Z 1706/1806 10003KT P6SM SKC
     FM171500 12005KT P6SM BKN250
     FM171800 12006KT P6SM SCT040 BKN250
     FM180000 VRB04KT P6SM SCT045 BKN100
     FM180400 VRB03KT P6SM BKN045=



000
FTUS44 KSHV 170500
TAFSHV
TAF
KSHV 170525Z 1706/1806 14003KT P6SM FEW250
     FM171500 12006KT P6SM BKN250
     FM171700 11007KT P6SM SCT035 SCT120 BKN250
     FM180000 VRB04KT P6SM SCT040 BKN100=



000
FTUS44 KSHV 170500
TAFGGG
TAF
KGGG 170525Z 1706/1806 12004KT P6SM FEW250
     FM171200 12004KT P6SM BKN250
     FM171400 12007KT P6SM SCT025 BKN250
     FM171800 12007KT P6SM SCT040 SCT100 BKN250
     FM180000 VRB04KT P6SM FEW045 BKN100=



000
FTUS44 KSHV 170500
TAFTYR
TAF
KTYR 170525Z 1706/1806 12007KT P6SM FEW250
     FM171200 12006KT P6SM SCT025 BKN250
      TEMPO 1712/1716 BKN025
     FM171600 12008KT P6SM SCT025 BKN250
     FM171800 10007KT P6SM SCT030 BKN035
     FM180000 VRB05KT P6SM SCT040 SCT100 BKN250=



000
FTUS44 KSHV 170500
TAFMLU
TAF
KMLU 170525Z 1706/1806 00000KT P6SM FEW250
     FM171200 VRB04KT P6SM BKN250
     FM171500 13006KT P6SM BKN250
     FM171700 13007KT P6SM SCT035 BKN250
     FM180000 VRB03KT P6SM BKN045=



000
FTUS44 KSHV 170500
TAFLFK
TAF
KLFK 170525Z 1706/1806 12004KT P6SM OVC250
     FM171000 11004KT P6SM SCT025 BKN250
      TEMPO 1710/1713 BKN020
     FM171300 10005KT P6SM BKN020
     FM171600 10007KT P6SM SCT030 BKN035
     FM172000 10007KT P6SM SCT040 SCT120 BKN250
     FM180000 VRB04KT P6SM FEW040 SCT100 BKN250=



000
FTUS44 KSHV 162300
TAFTYR
TAF
KTYR 162324Z 1700/1724 14009KT P6SM BKN250
     FM170300 14007KT P6SM SKC
     FM171100 13006KT P6SM SCT025
     FM171300 13007KT P6SM BKN015
     FM171500 13008KT P6SM BKN020
     FM171700 13007KT P6SM SCT030 BKN035=



000
FTUS44 KSHV 162300
TAFMLU
TAF
KMLU 162324Z 1700/1724 VRB03KT P6SM BKN250
     FM170700 VRB03KT P6SM SKC
     FM171500 14006KT P6SM BKN250
     FM171700 14007KT P6SM SCT040 BKN250=



000
FTUS44 KSHV 162300
TAFSHV
TAF
KSHV 162324Z 1700/1724 13005KT P6SM BKN250
     FM170500 13003KT P6SM SKC
     FM171500 13007KT P6SM BKN250
     FM171700 13007KT P6SM SCT040 BKN250=



000
FTUS44 KSHV 162300
TAFLFK
TAF
KLFK 162324Z 1700/1724 14006KT P6SM BKN250
     FM170300 13004KT P6SM SCT250
     FM171000 11003KT P6SM SCT020 BKN250
     FM171200 10004KT 6SM BR BKN020
     FM171400 11007KT P6SM BKN020
     FM171700 11007KT P6SM SCT030 BKN035=



000
FTUS44 KSHV 162300
TAFELD
TAF
KELD 162324Z 1700/1724 VRB03KT P6SM BKN250
     FM170600 00000KT P6SM SKC
     FM171500 13006KT P6SM SCT250
     FM171800 13007KT P6SM SCT045 BKN250=



000
FTUS44 KSHV 162300
TAFTXK
TAF
KTXK 162324Z 1700/1724 15005KT P6SM BKN250
     FM170400 14004KT P6SM SKC
     FM171500 14005KT P6SM SCT250
     FM171700 13005KT P6SM SCT040 BKN250=



000
FTUS44 KSHV 162300
TAFGGG
TAF
KGGG 162324Z 1700/1724 14006KT P6SM BKN250
     FM170400 14004KT P6SM SKC
     FM171500 13007KT P6SM SCT025 SCT250
     FM171700 13007KT P6SM BKN035=



000
FTUS44 KSHV 162000 AAA
TAFSHV
TAF AMD
KSHV 162042Z 1621/1718 12007KT P6SM BKN280
     FM170000 16007KT P6SM BKN250
     FM170600 18004KT P6SM SKC
     FM171500 14007KT P6SM BKN035 BKN250=



000
FTUS44 KSHV 162000 AAA
TAFTYR
TAF AMD
KTYR 162042Z 1621/1718 18010G16KT P6SM BKN270
     FM170000 16010KT P6SM SCT250
     FM171100 13007KT 6SM BR OVC025
     FM171400 14008KT P6SM OVC015
     FM171600 15009KT P6SM SCT030 BKN040=



000
FTUS44 KSHV 162000 AAA
TAFGGG
TAF AMD
KGGG 162041Z 1621/1718 12009KT P6SM BKN270
     FM170000 16007KT P6SM SCT250
     FM171100 13007KT 6SM BR OVC025
     FM171400 14008KT P6SM OVC015
     FM171600 15009KT P6SM SCT030 BKN040=



000
FTUS44 KSHV 161900 AAA
TAFLFK
TAF AMD
KLFK 161942Z 1620/1718 17007KT P6SM BKN270
     FM162200 15008KT P6SM BKN250
     FM170800 11003KT P6SM BKN030 OVC250
     FM171200 10004KT 5SM BR OVC015
     FM171400 11009KT P6SM OVC025=



000
FTUS44 KSHV 161900 AAA
TAFTXK
TAF AMD
KTXK 161940Z 1620/1718 VRB06KT P6SM BKN280
     FM162200 15009KT P6SM BKN250
     FM170000 15006KT P6SM SCT250
     FM171600 15006KT P6SM BKN035=



000
FTUS44 KSHV 161700 RRA
TAFGGG
TAF
KGGG 161753Z 1618/1718 13012G20KT P6SM BKN280
     FM170000 16010KT P6SM SCT250
     FM171100 13007KT 6SM BR OVC025
     FM171400 14008KT P6SM OVC015
     FM171600 15009KT P6SM SCT030 BKN040=



000
FTUS44 KSHV 161700 RRA
TAFELD
TAF
KELD 161753Z 1618/1718 09009KT P6SM BKN280
     FM170000 VRB03KT P6SM BKN250
     FM171400 14008KT P6SM SCT035=



000
FTUS44 KSHV 161700 RRA
TAFTXK
TAF
KTXK 161753Z 1618/1718 16011G17KT P6SM BKN280
     FM170000 15007KT P6SM SCT250
     FM170600 16005KT P6SM SKC
     FM171600 15006KT P6SM BKN035=



000
FTUS44 KSHV 161700 RRA
TAFLFK
TAF
KLFK 161753Z 1618/1718 15012G18KT P6SM BKN280
     FM162200 15012KT P6SM BKN250
     FM170800 11002KT P6SM BKN030 OVC250
     FM171200 10004KT 5SM BR OVC015
     FM171400 11009KT P6SM OVC025=



000
FTUS44 KSHV 161700 RRA
TAFMLU
TAF
KMLU 161753Z 1618/1718 20008KT P6SM BKN280
     FM170000 17004KT P6SM BKN250
     FM170400 VRB03KT P6SM BKN180
     FM171600 15006KT P6SM BKN035=



000
FTUS44 KSHV 161700 RRA
TAFSHV
TAF
KSHV 161753Z 1618/1718 16010G17KT P6SM BKN280
     FM170000 16007KT P6SM BKN250
     FM170600 18004KT P6SM SKC
     FM171500 14007KT P6SM BKN035 BKN250=



000
FTUS44 KSHV 161700 RRA
TAFTYR
TAF
KTYR 161753Z 1618/1718 15016G21KT P6SM BKN280
     FM170000 16010KT P6SM SCT250
     FM171100 13007KT 6SM BR OVC025
     FM171400 14008KT P6SM OVC015
     FM171600 15009KT P6SM SCT030 BKN040=



000
FTUS44 KSHV 161100
TAFLFK
TAF
KLFK 161121Z 1612/1712 12005KT P6SM SCT250
     FM161500 15010KT P6SM SCT250
     FM170000 14004KT P6SM BKN250=



000
FTUS44 KSHV 161100
TAFELD
TAF
KELD 161121Z 1612/1712 13005KT P6SM SCT250
     FM161500 14008KT P6SM SCT250
     FM170000 14004KT P6SM BKN250=



000
FTUS44 KSHV 161100
TAFTYR
TAF
KTYR 161121Z 1612/1712 14010KT P6SM BKN250
     FM161500 14012G20KT P6SM BKN250
     FM170000 16010KT P6SM SCT250=



000
FTUS44 KSHV 161100
TAFSHV
TAF
KSHV 161121Z 1612/1712 13007KT P6SM SCT250
     FM161600 15012KT P6SM BKN250
     FM170000 16007KT P6SM SCT250=



000
FTUS44 KSHV 161100
TAFTXK
TAF
KTXK 161121Z 1612/1712 14008KT P6SM BKN250
     FM161600 15012KT P6SM BKN250
     FM170000 15007KT P6SM SCT250=



000
FTUS44 KSHV 161100
TAFGGG
TAF
KGGG 161121Z 1612/1712 14010KT P6SM SCT250
     FM161500 14012G18KT P6SM BKN250
     FM170000 15007KT P6SM SCT250=



000
FTUS44 KSHV 161100
TAFMLU
TAF
KMLU 161121Z 1612/1712 10003KT P6SM FEW250
     FM161500 13006KT P6SM SCT250
     FM170000 14004KT P6SM BKN250=



000
FTUS44 KSHV 160500
TAFTXK
TAF
KTXK 160520Z 1606/1706 VRB03KT P6SM SKC
     FM161500 15009KT P6SM SCT250
     FM161800 16010KT P6SM BKN250=



000
FTUS44 KSHV 160500
TAFSHV
TAF
KSHV 160520Z 1606/1706 VRB03KT P6SM SKC
     FM161500 14010KT P6SM SCT250
     FM161800 14011KT P6SM BKN250=



000
FTUS44 KSHV 160500
TAFGGG
TAF
KGGG 160520Z 1606/1706 VRB03KT P6SM SKC
     FM160900 15005KT P6SM SKC
     FM161400 14010KT P6SM SCT250
     FM161700 15012KT P6SM BKN250=



000
FTUS44 KSHV 160500
TAFMLU
TAF
KMLU 160520Z 1606/1706 VRB03KT P6SM SKC
     FM161500 13006KT P6SM SKC
     FM161800 14007KT P6SM SCT250=



000
FTUS44 KSHV 160500
TAFELD
TAF
KELD 160520Z 1606/1706 VRB03KT P6SM SKC
     FM161500 14009KT P6SM SCT250
     FM161800 14009KT P6SM BKN250=



000
FTUS44 KSHV 160500
TAFTYR
TAF
KTYR 160520Z 1606/1706 14006KT P6SM SKC
     FM161400 14011KT P6SM SCT250
     FM161700 15012KT P6SM BKN250=



000
FTUS44 KSHV 160500
TAFLFK
TAF
KLFK 160520Z 1606/1706 VRB03KT P6SM SKC
     FM161500 13010KT P6SM SCT250
     FM161800 14010KT P6SM BKN250=



000
FTUS44 KSHV 152300
TAFGGG
TAF
KGGG 152320Z 1600/1624 VRB03KT P6SM SKC
     FM160900 15005KT P6SM SKC
     FM161400 14010KT P6SM SCT250
     FM161700 15012KT P6SM BKN250=



000
FTUS44 KSHV 152300
TAFELD
TAF
KELD 152320Z 1600/1624 VRB03KT P6SM SKC
     FM161500 14009KT P6SM SCT250
     FM161800 14009KT P6SM BKN250=



000
FTUS44 KSHV 152300
TAFSHV
TAF
KSHV 152320Z 1600/1624 VRB03KT P6SM SKC
     FM161500 14010KT P6SM SCT250
     FM161800 14011KT P6SM BKN250=



000
FTUS44 KSHV 152300
TAFTXK
TAF
KTXK 152320Z 1600/1624 VRB03KT P6SM SKC
     FM161500 15009KT P6SM SCT250
     FM161800 16010KT P6SM BKN250=



000
FTUS44 KSHV 152300
TAFLFK
TAF
KLFK 152320Z 1600/1624 VRB03KT P6SM SKC
     FM161500 13010KT P6SM SCT250
     FM161800 14010KT P6SM BKN250=



000
FTUS44 KSHV 152300
TAFMLU
TAF
KMLU 152320Z 1600/1624 VRB03KT P6SM SKC
     FM161500 13006KT P6SM SKC
     FM161800 14007KT P6SM SCT250=



000
FTUS44 KSHV 152300
TAFTYR
TAF
KTYR 152320Z 1600/1624 VRB03KT P6SM SKC
     FM160600 14006KT P6SM SKC
     FM161400 14011KT P6SM SCT250
     FM161700 15012KT P6SM BKN250=



000
FTUS44 KSHV 151700
TAFLFK
TAF
KLFK 151720Z 1518/1618 02010KT P6SM SKC
     FM152300 VRB03KT P6SM SKC
     FM161500 14010KT P6SM SKC=



000
FTUS44 KSHV 151700
TAFSHV
TAF
KSHV 151720Z 1518/1618 01012KT P6SM SKC
     FM152300 VRB04KT P6SM SKC
     FM161500 14010KT P6SM SKC=



000
FTUS44 KSHV 151700
TAFGGG
TAF
KGGG 151720Z 1518/1618 01010KT P6SM SKC
     FM152300 00000KT P6SM SKC
     FM160900 16005KT P6SM SKC
     FM161400 15010KT P6SM SKC=



000
FTUS44 KSHV 151700
TAFTXK
TAF
KTXK 151720Z 1518/1618 01006KT P6SM SKC
     FM152300 VRB03KT P6SM SKC
     FM161400 16008KT P6SM SKC=



000
FTUS44 KSHV 151700
TAFTYR
TAF
KTYR 151720Z 1518/1618 32008KT P6SM SKC
     FM160000 00000KT P6SM SKC
     FM160600 17006KT P6SM SKC
     FM161400 16012KT P6SM SKC=



000
FTUS44 KSHV 151700
TAFELD
TAF
KELD 151720Z 1518/1618 03010KT P6SM SKC
     FM152300 VRB03KT P6SM SKC
     FM161500 13006KT P6SM SCT250=



000
FTUS44 KSHV 151700
TAFMLU
TAF
KMLU 151720Z 1518/1618 35014G20KT P6SM SKC
     FM152100 01010KT P6SM SKC
     FM160000 VRB03KT P6SM SKC
     FM161500 13006KT P6SM SKC=



000
FTUS44 KSHV 151100
TAFELD
TAF
KELD 151137Z 1512/1612 35010KT P6SM SKC
     FM151800 35008KT P6SM SCT050
     FM160000 VRB03KT P6SM SKC=



000
FTUS44 KSHV 151100
TAFTYR
TAF
KTYR 151137Z 1512/1612 34007KT P6SM SKC
     FM152300 VRB04KT P6SM SKC
     FM160400 14005KT P6SM SKC=



000
FTUS44 KSHV 151100
TAFLFK
TAF
KLFK 151137Z 1512/1612 35008KT P6SM SKC
     FM152300 VRB03KT P6SM SKC
     FM160300 00000KT P6SM SKC=



000
FTUS44 KSHV 151100
TAFGGG
TAF
KGGG 151137Z 1512/1612 35008KT P6SM SKC
     FM152300 VRB03KT P6SM SKC
     FM160600 15004KT P6SM SKC=



000
FTUS44 KSHV 151100
TAFSHV
TAF
KSHV 151137Z 1512/1612 35010KT P6SM SKC
     FM152300 VRB04KT P6SM SKC
     FM160900 12004KT P6SM SKC=



000
FTUS44 KSHV 151100
TAFMLU
TAF
KMLU 151137Z 1512/1612 35012G18KT P6SM SCT035
     FM151800 36012KT P6SM SCT050
     FM160000 VRB04KT P6SM SKC=



000
FTUS44 KSHV 151100
TAFTXK
TAF
KTXK 151137Z 1512/1612 33007KT P6SM SKC
     FM152300 VRB03KT P6SM SKC
     FM160600 14004KT P6SM SKC=



000
FTUS44 KSHV 150500
TAFSHV
TAF
KSHV 150522Z 1506/1606 35011KT P6SM SCT290
     FM151300 01010KT P6SM SKC
     FM160000 34005KT P6SM SKC=



000
FTUS44 KSHV 150500
TAFLFK
TAF
KLFK 150522Z 1506/1606 33008KT P6SM SKC
     FM151200 02011KT P6SM SKC
     FM160000 VRB03KT P6SM SKC=



000
FTUS44 KSHV 150500
TAFTXK
TAF
KTXK 150522Z 1506/1606 34006KT P6SM SKC
     FM151500 01006KT P6SM SKC
     FM160000 VRB03KT P6SM SKC=



000
FTUS44 KSHV 150500
TAFTYR
TAF
KTYR 150522Z 1506/1606 34004KT P6SM SKC
     FM151000 34004KT P6SM SKC
     FM151600 01008KT P6SM SKC
     FM160000 VRB03KT P6SM SKC=



000
FTUS44 KSHV 150500
TAFELD
TAF
KELD 150522Z 1506/1606 32010KT P6SM SKC
     FM151500 36008KT P6SM SKC
     FM160000 VRB04KT P6SM SKC=



000
FTUS44 KSHV 150500
TAFGGG
TAF
KGGG 150522Z 1506/1606 33009KT P6SM SKC
     FM151600 33009KT P6SM SKC
     FM160000 VRB04KT P6SM SKC=



000
FTUS44 KSHV 150500
TAFMLU
TAF
KMLU 150522Z 1506/1606 34016G22KT P6SM OVC029
     FM150700 34014KT P6SM SKC
     FM151500 01016G22KT P6SM SKC
     FM160000 03005KT P6SM SKC=



000
FTUS44 KSHV 142300
TAFLFK
TAF
KLFK 142320Z 1500/1524 34013G21KT P6SM BKN025 BKN029 OVC070
     FM150300 35010KT P6SM BKN050
     FM150700 35005KT P6SM SKC
     FM151200 02012KT P6SM SKC=



000
FTUS44 KSHV 142300
TAFMLU
TAF
KMLU 142320Z 1500/1524 32014G22KT P6SM BKN009 OVC013
     FM150200 34014G22KT P6SM OVC015
     FM150600 34012KT P6SM OVC050
     FM151000 34013KT P6SM SKC
     FM151500 01016G22KT P6SM SKC=



000
FTUS44 KSHV 142300
TAFTYR
TAF
KTYR 142320Z 1500/1524 36012G20KT P6SM OVC035
     FM150300 35010KT P6SM SKC
     FM151000 34004KT P6SM SKC=



000
FTUS44 KSHV 142300
TAFELD
TAF
KELD 142320Z 1500/1524 33008G17KT P6SM BKN015 OVC021
     FM150500 33008KT P6SM BKN020
     FM150800 33005KT P6SM SKC
     FM151500 36008KT P6SM SKC=



000
FTUS44 KSHV 142300
TAFTXK
TAF
KTXK 142320Z 1500/1524 33016G22KT P6SM OVC030
     FM150200 33014KT P6SM OVC050
     FM150400 33004KT P6SM SKC
     FM151500 33007KT P6SM SKC=



000
FTUS44 KSHV 142300
TAFGGG
TAF
KGGG 142320Z 1500/1524 34012G21KT P6SM OVC026
     FM150100 34012KT P6SM BKN050
     FM150500 35008KT P6SM SKC
     FM151600 33006KT P6SM SKC=



000
FTUS44 KSHV 142300
TAFSHV
TAF
KSHV 142320Z 1500/1524 32016G21KT P6SM OVC021
     FM150200 33012KT P6SM OVC070
     FM150600 34010KT P6SM SKC
     FM151300 01011KT P6SM SKC=



000
FTUS44 KSHV 142200 AAC
TAFMLU
TAF AMD
KMLU 142233Z 1423/1518 33012G22KT P6SM VCSH OVC011
     FM150200 34014G22KT P6SM OVC015
     FM150600 34012KT P6SM OVC050
     FM151000 34010KT P6SM SKC=



000
FTUS44 KSHV 142200 AAB
TAFMLU
TAF AMD
KMLU 142232Z 1423/1518 31017G27KT P6SM VCSH OVC005
     FM150200 34014G22KT P6SM OVC015
     FM150600 34012KT P6SM OVC050
     FM151000 34010KT P6SM SKC=



000
FTUS44 KSHV 142100 AAA
TAFMLU
TAF AMD
KMLU 142120Z 1421/1518 35013KT P6SM VCTS SCT005 BKN019CB OVC035
      TEMPO 1421/1423 35018G28KT 2SM +TSRA BKN005 OVC019CB
     FM142300 31017G27KT P6SM VCSH OVC005
     FM150200 34014G22KT P6SM OVC015
     FM150600 34012KT P6SM OVC050
     FM151000 34010KT P6SM SKC=



000
FTUS44 KSHV 141700
TAFLFK
TAF
KLFK 141735Z 1418/1518 31012G18KT P6SM OVC007
      TEMPO 1418/1421 32015G25KT 2SM +TSRA SCT007 OVC015CB
     FM142100 32013G23KT P6SM OVC015
     FM150300 33010KT P6SM BKN050
     FM150700 35005KT P6SM SKC=



000
FTUS44 KSHV 141700
TAFSHV
TAF
KSHV 141735Z 1418/1518 33015G25KT P6SM VCTS BKN007 OVC015CB
      TEMPO 1418/1419 2SM +TSRA SCT007 OVC015CB
     FM141900 32016G26KT P6SM VCTS OVC015CB
     FM142100 33018G28KT P6SM OVC025
     FM150200 33012G20KT P6SM OVC050
     FM150600 34010KT P6SM SKC=



000
FTUS44 KSHV 141700
TAFGGG
TAF
KGGG 141735Z 1418/1518 32013KT P6SM VCTS BKN013 OVC035CB
     FM142000 34016G26KT P6SM OVC020
     FM150100 34012G20KT P6SM BKN050
     FM150500 35008KT P6SM SKC=



000
FTUS44 KSHV 141700
TAFTXK
TAF
KTXK 141735Z 1418/1518 32015G25KT P6SM VCTS BKN006 OVC024CB
     FM142000 33016G26KT P6SM SCT006 OVC024
     FM150100 33014KT P6SM OVC050
     FM150400 33010KT P6SM SKC
     FM151500 01007KT P6SM SKC=



000
FTUS44 KSHV 141700
TAFMLU
TAF
KMLU 141735Z 1418/1518 11005KT P6SM VCTS SCT005 BKN019CB OVC035
      TEMPO 1420/1423 32018G28KT 2SM +TSRA BKN005 OVC019CB
     FM142300 31017G27KT P6SM VCSH OVC005
     FM150200 34014G22KT P6SM OVC015
     FM150600 34012KT P6SM OVC050
     FM151000 34010KT P6SM SKC=



000
FTUS44 KSHV 141700
TAFELD
TAF
KELD 141735Z 1418/1518 36012KT 4SM BR VCSH BKN006 OVC012
      TEMPO 1418/1421 33015G25KT 2SM +TSRA SCT006 OVC012CB
     FM150000 33012G20KT P6SM OVC015
     FM150500 33008KT P6SM BKN020
     FM150800 33005KT P6SM SKC=



000
FTUS44 KSHV 141700
TAFTYR
TAF
KTYR 141735Z 1418/1518 34014KT P6SM VCSH OVC013
     FM142000 34018G28KT P6SM OVC025
     FM150000 34012G20KT P6SM BKN050
     FM150300 35008KT P6SM SKC=



000
FTUS44 KSHV 141600 AAC
TAFSHV
TAF AMD
KSHV 141622Z 1416/1512 31015KT P6SM VCSH OVC005
     FM141900 32016G26KT P6SM VCTS OVC015CB
     FM142100 33018G28KT P6SM OVC015
     FM150300 33014G24KT P6SM BKN050
     FM150800 34012KT P6SM SKC=



000
FTUS44 KSHV 141500 AAA
TAFTYR
TAF AMD
KTYR 141542Z 1416/1512 34012G24KT 1 1/2SM +TSRA OVC015CB
     FM141700 33016G26KT P6SM VCTS OVC015CB
     FM141800 35016G28KT P6SM OVC025
     FM150000 34012G20KT P6SM SCT030
     FM150300 33010KT P6SM SKC=



000
FTUS44 KSHV 141500 AAA
TAFGGG
TAF AMD
KGGG 141539Z 1416/1512 33012G22KT P6SM VCSH OVC008
      TEMPO 1416/1418 3SM TSRA SCT008 OVC015CB
     FM141800 32014G24KT P6SM OVC015
     FM142100 33015G25KT P6SM OVC025
     FM150000 34012G20KT P6SM SCT030
     FM150300 33010KT P6SM SKC=



000
FTUS44 KSHV 141500 AAA
TAFLFK
TAF AMD
KLFK 141536Z 1416/1512 32012G20KT 5SM BR OVC004
      TEMPO 1416/1420 32015G25KT 2SM +TSRA SCT004 OVC015CB
     FM142000 32013G21KT P6SM OVC020
     FM150300 33010KT P6SM SKC=



000
FTUS44 KSHV 141400 AAB
TAFSHV
TAF AMD
KSHV 141443Z 1415/1512 32015G25KT 5SM BR VCTS BKN007 OVC025CB
      TEMPO 1415/1416 2SM BR OVC005
     FM141600 32016G26KT P6SM VCSH OVC015
     FM141900 32017G27KT P6SM OVC025
     FM150300 33014G24KT P6SM SKC
     FM150800 34012KT P6SM SKC=



000
FTUS44 KSHV 141400 AAA
TAFTXK
TAF AMD
KTXK 141413Z 1414/1512 30012G22KT 5SM BR VCSH OVC004
      TEMPO 1415/1417 31016G28KT 2SM +TSRA BKN004 OVC015CB
     FM141700 31014G24KT P6SM OVC015
     FM142000 33015G25KT P6SM OVC025
     FM150300 33012G20KT P6SM SKC
     FM150600 34008KT P6SM SKC=



000
FTUS44 KSHV 141400 AAA
TAFSHV
TAF AMD
KSHV 141404Z 1414/1512 33014G24KT 5SM BR VCSH FEW023 BKN035 BKN060
      TEMPO 1414/1416 31020G30KT 3SM TSRA OVC020CB
     FM141600 30015G25KT P6SM VCSH OVC015
     FM141900 32017G27KT P6SM OVC025
     FM150300 33014G24KT P6SM SKC
     FM150800 34012KT P6SM SKC=



000
FTUS44 KSHV 141100
TAFGGG
TAF
KGGG 141124Z 1412/1512 33012G22KT P6SM VCTS BKN008 OVC015CB
     FM141500 32014G24KT P6SM OVC015
     FM141700 33015G25KT P6SM OVC025
     FM150000 34012G20KT P6SM SCT030
     FM150300 33010KT P6SM SKC=



000
FTUS44 KSHV 141100
TAFLFK
TAF
KLFK 141124Z 1412/1512 VRB06KT 5SM BR VCTS OVC015CB
      TEMPO 1412/1416 31012G20KT 3SM -TSRA BR OVC008CB
     FM141600 30012G20KT 5SM -TSRA BR OVC008CB
      TEMPO 1418/1420 P6SM NSW OVC015
     FM142000 32013G21KT P6SM OVC020
     FM150300 33010KT P6SM SKC=



000
FTUS44 KSHV 141100
TAFTXK
TAF
KTXK 141124Z 1412/1512 VRB06KT P6SM VCSH BKN015 OVC030
      TEMPO 1412/1416 31014G22KT P6SM OVC008
     FM141600 31014G24KT P6SM OVC015
     FM142000 33015G25KT P6SM OVC025
     FM150300 33012G20KT P6SM SKC
     FM150600 34008KT P6SM SKC=



000
FTUS44 KSHV 141100
TAFMLU
TAF
KMLU 141124Z 1412/1512 VRB06KT P6SM VCTS OVC006CB
      TEMPO 1412/1416 3SM -TSRA BR OVC015CB
     FM141600 21010KT P6SM VCTS OVC015CB
      TEMPO 1416/1420 VRB15G25KT 3SM -TSRA BR OVC008CB
     FM142000 31017G27KT P6SM VCSH OVC010
     FM150600 34014G22KT P6SM OVC020
     FM151000 34012G18KT P6SM SKC=



000
FTUS44 KSHV 141100
TAFELD
TAF
KELD 141124Z 1412/1512 VRB06KT P6SM VCSH OVC015
      TEMPO 1414/1418 31014G24KT 5SM -SHRA BR OVC008
     FM141800 31014G24KT P6SM OVC010
     FM150000 33012G20KT P6SM OVC025
     FM150600 33008KT P6SM BKN030
     FM150800 33008KT P6SM SKC=



000
FTUS44 KSHV 141100
TAFSHV
TAF
KSHV 141124Z 1412/1512 VRB06KT P6SM VCSH SCT015 BKN030 OVC100
      TEMPO 1412/1416 31014G22KT P6SM OVC010
     FM141600 30014G22KT P6SM VCSH OVC015
     FM141900 32017G27KT P6SM OVC025
     FM150300 33014G24KT P6SM SKC
     FM150800 34012KT P6SM SKC=



000
FTUS44 KSHV 141100
TAFTYR
TAF
KTYR 141124Z 1412/1512 33014G24KT P6SM VCSH BKN008 OVC015
     FM141500 33016G26KT P6SM OVC015
     FM141700 33016G25KT P6SM OVC025
     FM150000 34012G20KT P6SM SCT030
     FM150300 33010KT P6SM SKC=



000
FTUS44 KSHV 140700 AAA
TAFELD
TAF AMD
KELD 140756Z 1408/1506 VRB10KT 5SM -TSRA BR SCT006 BKN015CB OVC025
      TEMPO 1408/1412 VRB15G25KT 2SM TSRA OVC006CB
     FM141200 28010KT 4SM -TSRA BR OVC008CB
     FM141500 33013KT P6SM VCTS OVC015CB
     FM142200 31015G22KT P6SM OVC015
     FM150200 33012KT P6SM BKN250=



    US Dept of Commerce
    National Oceanic and Atmospheric Administration
    National Weather Service
    1325 East West Highway
    Silver Spring, MD 20910
    Page Author: NWS Internet Services Team
Disclaimer
Information Quality
Credits
Glossary
Privacy Policy
Freedom of Information Act (FOIA)
About Us
Career Opportunities